sensor_id;sensor_type;location;lat;lon;timestamp;P1;durP1;ratioP1;P2;durP2;ratioP2
13477;SDS011;12598;62.382;17.344;2022-12-10T00:00:30;1.60;;;1.50;;
13477;SDS011;12598;62.382;17.344;2022-12-10T00:01:32;1.35;;;1.25;;
13477;SDS011;12598;62.382;17.344;2022-12-10T00:02:35;1.40;;;1.30;;
13477;SDS011;12598;62.382;17.344;2022-12-10T00:03:37;1.73;;;1.50;;
13477;SDS011;12598;62.382;17.344;2022-12-10T00:04:39;1.50;;;1.40;;
13477;SDS011;12598;62.382;17.344;2022-12-10T00:05:46;1.50;;;1.40;;
13477;SDS011;12598;62.382;17.344;2022-12-10T00:06:48;1.50;;;1.40;;
13477;SDS011;12598;62.382;17.344;2022-12-10T00:07:50;1.40;;;1.30;;
13477;SDS011;12598;62.382;17.344;2022-12-10T00:08:52;1.48;;;1.38;;
13477;SDS011;12598;62.382;17.344;2022-12-10T00:09:54;1.50;;;1.40;;
13477;SDS011;12598;62.382;17.344;2022-12-10T00:10:56;1.65;;;1.50;;
13477;SDS011;12598;62.382;17.344;2022-12-10T00:11:58;1.30;;;1.20;;
13477;SDS011;12598;62.382;17.344;2022-12-10T00:13:00;1.60;;;1.40;;
13477;SDS011;12598;62.382;17.344;2022-12-10T00:14:02;1.52;;;1.42;;
13477;SDS011;12598;62.382;17.344;2022-12-10T00:15:03;1.63;;;1.48;;
13477;SDS011;12598;62.382;17.344;2022-12-10T00:16:07;1.45;;;1.35;;
13477;SDS011;12598;62.382;17.344;2022-12-10T00:17:11;1.60;;;1.50;;
13477;SDS011;12598;62.382;17.344;2022-12-10T00:18:13;1.27;;;1.17;;
13477;SDS011;12598;62.382;17.344;2022-12-10T00:19:15;1.63;;;1.52;;
13477;SDS011;12598;62.382;17.344;2022-12-10T00:20:17;1.75;;;1.65;;
13477;SDS011;12598;62.382;17.344;2022-12-10T00:21:20;1.63;;;1.52;;
13477;SDS011;12598;62.382;17.344;2022-12-10T00:22:24;1.50;;;1.40;;
13477;SDS011;12598;62.382;17.344;2022-12-10T00:23:26;1.40;;;1.30;;
13477;SDS011;12598;62.382;17.344;2022-12-10T00:24:27;1.30;;;1.20;;
13477;SDS011;12598;62.382;17.344;2022-12-10T00:25:29;1.60;;;1.50;;
13477;SDS011;12598;62.382;17.344;2022-12-10T00:26:36;1.38;;;1.27;;
13477;SDS011;12598;62.382;17.344;2022-12-10T00:27:40;1.60;;;1.50;;
13477;SDS011;12598;62.382;17.344;2022-12-10T00:28:42;1.80;;;1.70;;
13477;SDS011;12598;62.382;17.344;2022-12-10T00:29:44;1.35;;;1.25;;
13477;SDS011;12598;62.382;17.344;2022-12-10T00:30:46;1.42;;;1.33;;
13477;SDS011;12598;62.382;17.344;2022-12-10T00:31:48;1.63;;;1.52;;
13477;SDS011;12598;62.382;17.344;2022-12-10T00:32:49;1.35;;;1.25;;
13477;SDS011;12598;62.382;17.344;2022-12-10T00:33:53;1.33;;;1.20;;
13477;SDS011;12598;62.382;17.344;2022-12-10T00:34:56;1.33;;;1.23;;
13477;SDS011;12598;62.382;17.344;2022-12-10T00:36:01;1.52;;;1.42;;
13477;SDS011;12598;62.382;17.344;2022-12-10T00:37:09;1.48;;;1.38;;
13477;SDS011;12598;62.382;17.344;2022-12-10T00:38:10;1.35;;;1.23;;
13477;SDS011;12598;62.382;17.344;2022-12-10T00:39:14;1.42;;;1.33;;
13477;SDS011;12598;62.382;17.344;2022-12-10T00:40:18;1.23;;;1.13;;
13477;SDS011;12598;62.382;17.344;2022-12-10T00:41:20;1.40;;;1.30;;
13477;SDS011;12598;62.382;17.344;2022-12-10T00:42:22;1.33;;;1.23;;
13477;SDS011;12598;62.382;17.344;2022-12-10T00:43:26;1.30;;;1.20;;
13477;SDS011;12598;62.382;17.344;2022-12-10T00:44:28;1.33;;;1.23;;
13477;SDS011;12598;62.382;17.344;2022-12-10T00:45:30;1.08;;;1.02;;
13477;SDS011;12598;62.382;17.344;2022-12-10T00:46:32;0.85;;;0.80;;
13477;SDS011;12598;62.382;17.344;2022-12-10T00:47:35;1.23;;;1.10;;
13477;SDS011;12598;62.382;17.344;2022-12-10T00:48:37;1.42;;;1.33;;
13477;SDS011;12598;62.382;17.344;2022-12-10T00:49:39;0.98;;;0.93;;
13477;SDS011;12598;62.382;17.344;2022-12-10T00:50:41;1.65;;;1.10;;
13477;SDS011;12598;62.382;17.344;2022-12-10T00:51:42;1.17;;;1.08;;
13477;SDS011;12598;62.382;17.344;2022-12-10T00:52:45;1.30;;;1.20;;
13477;SDS011;12598;62.382;17.344;2022-12-10T00:53:48;1.20;;;1.10;;
13477;SDS011;12598;62.382;17.344;2022-12-10T00:54:51;1.20;;;1.10;;
13477;SDS011;12598;62.382;17.344;2022-12-10T00:55:53;1.40;;;1.10;;
13477;SDS011;12598;62.382;17.344;2022-12-10T00:56:55;1.20;;;1.08;;
13477;SDS011;12598;62.382;17.344;2022-12-10T00:57:57;1.73;;;1.30;;
13477;SDS011;12598;62.382;17.344;2022-12-10T00:58:59;1.35;;;1.25;;
13477;SDS011;12598;62.382;17.344;2022-12-10T01:00:02;1.35;;;1.25;;
13477;SDS011;12598;62.382;17.344;2022-12-10T01:01:13;2.17;;;1.30;;
13477;SDS011;12598;62.382;17.344;2022-12-10T01:02:18;1.30;;;1.20;;
13477;SDS011;12598;62.382;17.344;2022-12-10T01:03:20;1.10;;;1.00;;
13477;SDS011;12598;62.382;17.344;2022-12-10T01:04:22;1.13;;;1.02;;
13477;SDS011;12598;62.382;17.344;2022-12-10T01:05:24;1.50;;;1.40;;
13477;SDS011;12598;62.382;17.344;2022-12-10T01:06:27;0.98;;;0.95;;
13477;SDS011;12598;62.382;17.344;2022-12-10T01:07:31;1.25;;;1.15;;
13477;SDS011;12598;62.382;17.344;2022-12-10T01:08:33;0.82;;;0.82;;
13477;SDS011;12598;62.382;17.344;2022-12-10T01:09:35;1.00;;;1.00;;
13477;SDS011;12598;62.382;17.344;2022-12-10T01:10:37;1.02;;;0.88;;
13477;SDS011;12598;62.382;17.344;2022-12-10T01:11:40;1.02;;;0.95;;
13477;SDS011;12598;62.382;17.344;2022-12-10T01:12:44;1.38;;;1.20;;
13477;SDS011;12598;62.382;17.344;2022-12-10T01:13:47;1.02;;;0.93;;
13477;SDS011;12598;62.382;17.344;2022-12-10T01:14:50;0.90;;;0.85;;
13477;SDS011;12598;62.382;17.344;2022-12-10T01:15:52;0.90;;;0.80;;
13477;SDS011;12598;62.382;17.344;2022-12-10T01:16:55;1.02;;;0.93;;
13477;SDS011;12598;62.382;17.344;2022-12-10T01:17:58;1.20;;;1.10;;
13477;SDS011;12598;62.382;17.344;2022-12-10T01:19:00;1.20;;;1.08;;
13477;SDS011;12598;62.382;17.344;2022-12-10T01:20:02;1.10;;;1.00;;
13477;SDS011;12598;62.382;17.344;2022-12-10T01:21:06;1.10;;;1.00;;
13477;SDS011;12598;62.382;17.344;2022-12-10T01:22:09;1.20;;;1.10;;
13477;SDS011;12598;62.382;17.344;2022-12-10T01:23:11;1.05;;;1.05;;
13477;SDS011;12598;62.382;17.344;2022-12-10T01:24:13;1.10;;;1.00;;
13477;SDS011;12598;62.382;17.344;2022-12-10T01:25:18;1.50;;;0.90;;
13477;SDS011;12598;62.382;17.344;2022-12-10T01:26:20;1.05;;;0.95;;
13477;SDS011;12598;62.382;17.344;2022-12-10T01:27:28;1.08;;;0.98;;
13477;SDS011;12598;62.382;17.344;2022-12-10T01:28:30;0.98;;;0.95;;
13477;SDS011;12598;62.382;17.344;2022-12-10T01:29:36;1.10;;;1.00;;
13477;SDS011;12598;62.382;17.344;2022-12-10T01:30:38;1.20;;;1.10;;
13477;SDS011;12598;62.382;17.344;2022-12-10T01:31:40;1.00;;;0.90;;
13477;SDS011;12598;62.382;17.344;2022-12-10T01:32:42;0.80;;;0.80;;
13477;SDS011;12598;62.382;17.344;2022-12-10T01:33:44;0.80;;;0.80;;
13477;SDS011;12598;62.382;17.344;2022-12-10T01:34:46;1.42;;;1.10;;
13477;SDS011;12598;62.382;17.344;2022-12-10T01:35:48;0.82;;;0.82;;
13477;SDS011;12598;62.382;17.344;2022-12-10T01:36:51;1.15;;;1.02;;
13477;SDS011;12598;62.382;17.344;2022-12-10T01:37:55;1.15;;;0.88;;
13477;SDS011;12598;62.382;17.344;2022-12-10T01:38:58;1.10;;;1.00;;
13477;SDS011;12598;62.382;17.344;2022-12-10T01:40:03;0.90;;;0.90;;
13477;SDS011;12598;62.382;17.344;2022-12-10T01:41:07;1.02;;;0.90;;
13477;SDS011;12598;62.382;17.344;2022-12-10T01:42:10;1.15;;;0.90;;
13477;SDS011;12598;62.382;17.344;2022-12-10T01:43:14;1.10;;;1.00;;
13477;SDS011;12598;62.382;17.344;2022-12-10T01:45:18;0.98;;;0.90;;
13477;SDS011;12598;62.382;17.344;2022-12-10T01:46:21;1.40;;;1.08;;
13477;SDS011;12598;62.382;17.344;2022-12-10T01:47:23;1.15;;;1.00;;
13477;SDS011;12598;62.382;17.344;2022-12-10T01:48:25;1.23;;;0.93;;
13477;SDS011;12598;62.382;17.344;2022-12-10T01:49:33;0.95;;;0.95;;
13477;SDS011;12598;62.382;17.344;2022-12-10T01:50:37;1.08;;;0.95;;
13477;SDS011;12598;62.382;17.344;2022-12-10T01:51:40;0.95;;;0.80;;
13477;SDS011;12598;62.382;17.344;2022-12-10T01:52:43;0.88;;;0.82;;
13477;SDS011;12598;62.382;17.344;2022-12-10T01:53:45;1.15;;;1.05;;
13477;SDS011;12598;62.382;17.344;2022-12-10T01:54:48;1.00;;;1.00;;
13477;SDS011;12598;62.382;17.344;2022-12-10T01:55:50;1.17;;;1.08;;
13477;SDS011;12598;62.382;17.344;2022-12-10T01:56:59;1.55;;;1.30;;
13477;SDS011;12598;62.382;17.344;2022-12-10T01:58:06;0.82;;;0.73;;
13477;SDS011;12598;62.382;17.344;2022-12-10T01:59:08;1.00;;;0.88;;
13477;SDS011;12598;62.382;17.344;2022-12-10T02:00:12;0.80;;;0.80;;
13477;SDS011;12598;62.382;17.344;2022-12-10T02:02:53;0.93;;;0.80;;
13477;SDS011;12598;62.382;17.344;2022-12-10T02:05:25;0.98;;;0.90;;
13477;SDS011;12598;62.382;17.344;2022-12-10T02:09:02;1.20;;;1.10;;
13477;SDS011;12598;62.382;17.344;2022-12-10T02:10:17;1.27;;;1.17;;
13477;SDS011;12598;62.382;17.344;2022-12-10T02:12:49;1.00;;;0.90;;
13477;SDS011;12598;62.382;17.344;2022-12-10T02:14:04;1.63;;;1.00;;
13477;SDS011;12598;62.382;17.344;2022-12-10T02:15:47;1.15;;;1.02;;
13477;SDS011;12598;62.382;17.344;2022-12-10T02:16:55;0.82;;;0.80;;
13477;SDS011;12598;62.382;17.344;2022-12-10T02:19:21;1.23;;;1.10;;
13477;SDS011;12598;62.382;17.344;2022-12-10T02:20:39;1.00;;;0.93;;
13477;SDS011;12598;62.382;17.344;2022-12-10T02:21:44;1.13;;;0.98;;
13477;SDS011;12598;62.382;17.344;2022-12-10T02:22:56;0.95;;;0.85;;
13477;SDS011;12598;62.382;17.344;2022-12-10T02:24:03;0.80;;;0.80;;
13477;SDS011;12598;62.382;17.344;2022-12-10T02:25:08;0.95;;;0.90;;
13477;SDS011;12598;62.382;17.344;2022-12-10T02:26:19;0.88;;;0.88;;
13477;SDS011;12598;62.382;17.344;2022-12-10T02:27:37;1.13;;;1.02;;
13477;SDS011;12598;62.382;17.344;2022-12-10T02:29:31;1.00;;;0.90;;
13477;SDS011;12598;62.382;17.344;2022-12-10T02:30:14;0.80;;;0.80;;
13477;SDS011;12598;62.382;17.344;2022-12-10T02:31:17;1.23;;;1.13;;
13477;SDS011;12598;62.382;17.344;2022-12-10T02:32:23;1.52;;;1.00;;
13477;SDS011;12598;62.382;17.344;2022-12-10T02:33:35;1.00;;;0.88;;
13477;SDS011;12598;62.382;17.344;2022-12-10T02:34:44;1.45;;;1.27;;
13477;SDS011;12598;62.382;17.344;2022-12-10T02:35:51;1.15;;;1.05;;
13477;SDS011;12598;62.382;17.344;2022-12-10T02:36:55;0.95;;;0.88;;
13477;SDS011;12598;62.382;17.344;2022-12-10T02:38:04;1.27;;;1.17;;
13477;SDS011;12598;62.382;17.344;2022-12-10T02:39:17;0.80;;;0.75;;
13477;SDS011;12598;62.382;17.344;2022-12-10T02:40:31;1.42;;;1.20;;
13477;SDS011;12598;62.382;17.344;2022-12-10T02:41:40;1.25;;;1.15;;
13477;SDS011;12598;62.382;17.344;2022-12-10T02:42:45;1.30;;;1.10;;
13477;SDS011;12598;62.382;17.344;2022-12-10T02:43:51;0.93;;;0.90;;
13477;SDS011;12598;62.382;17.344;2022-12-10T02:44:55;1.27;;;1.15;;
13477;SDS011;12598;62.382;17.344;2022-12-10T02:45:59;0.85;;;0.85;;
13477;SDS011;12598;62.382;17.344;2022-12-10T02:47:04;1.30;;;1.20;;
13477;SDS011;12598;62.382;17.344;2022-12-10T02:48:11;1.10;;;1.00;;
13477;SDS011;12598;62.382;17.344;2022-12-10T02:49:17;0.80;;;0.80;;
13477;SDS011;12598;62.382;17.344;2022-12-10T02:50:19;1.45;;;1.20;;
13477;SDS011;12598;62.382;17.344;2022-12-10T02:51:24;1.20;;;1.10;;
13477;SDS011;12598;62.382;17.344;2022-12-10T02:52:26;1.65;;;1.20;;
13477;SDS011;12598;62.382;17.344;2022-12-10T02:53:28;1.30;;;1.20;;
13477;SDS011;12598;62.382;17.344;2022-12-10T02:54:37;1.25;;;1.15;;
13477;SDS011;12598;62.382;17.344;2022-12-10T02:55:53;1.00;;;0.90;;
13477;SDS011;12598;62.382;17.344;2022-12-10T02:57:40;1.10;;;1.00;;
13477;SDS011;12598;62.382;17.344;2022-12-10T03:00:05;1.30;;;1.17;;
13477;SDS011;12598;62.382;17.344;2022-12-10T03:02:55;2.45;;;1.35;;
13477;SDS011;12598;62.382;17.344;2022-12-10T03:04:18;1.63;;;1.20;;
13477;SDS011;12598;62.382;17.344;2022-12-10T03:06:50;1.20;;;1.10;;
13477;SDS011;12598;62.382;17.344;2022-12-10T03:07:56;1.27;;;1.17;;
13477;SDS011;12598;62.382;17.344;2022-12-10T03:09:06;1.20;;;1.10;;
13477;SDS011;12598;62.382;17.344;2022-12-10T03:10:26;1.40;;;1.30;;
13477;SDS011;12598;62.382;17.344;2022-12-10T03:11:35;1.40;;;1.30;;
13477;SDS011;12598;62.382;17.344;2022-12-10T03:12:45;1.50;;;1.38;;
13477;SDS011;12598;62.382;17.344;2022-12-10T03:15:00;1.35;;;1.25;;
13477;SDS011;12598;62.382;17.344;2022-12-10T03:16:04;1.75;;;1.23;;
13477;SDS011;12598;62.382;17.344;2022-12-10T03:17:07;1.20;;;1.10;;
13477;SDS011;12598;62.382;17.344;2022-12-10T03:18:09;1.27;;;1.17;;
13477;SDS011;12598;62.382;17.344;2022-12-10T03:20:37;1.50;;;1.40;;
13477;SDS011;12598;62.382;17.344;2022-12-10T03:21:41;1.55;;;1.23;;
13477;SDS011;12598;62.382;17.344;2022-12-10T03:22:46;1.38;;;1.25;;
13477;SDS011;12598;62.382;17.344;2022-12-10T03:23:50;1.40;;;1.30;;
13477;SDS011;12598;62.382;17.344;2022-12-10T03:24:52;1.48;;;1.33;;
13477;SDS011;12598;62.382;17.344;2022-12-10T03:25:54;1.45;;;1.35;;
13477;SDS011;12598;62.382;17.344;2022-12-10T03:26:56;1.60;;;1.50;;
13477;SDS011;12598;62.382;17.344;2022-12-10T03:27:59;1.52;;;1.42;;
13477;SDS011;12598;62.382;17.344;2022-12-10T03:29:05;2.13;;;1.95;;
13477;SDS011;12598;62.382;17.344;2022-12-10T03:30:10;1.50;;;1.40;;
13477;SDS011;12598;62.382;17.344;2022-12-10T03:31:12;1.83;;;1.52;;
13477;SDS011;12598;62.382;17.344;2022-12-10T03:32:16;1.67;;;1.58;;
13477;SDS011;12598;62.382;17.344;2022-12-10T03:33:21;1.58;;;1.48;;
13477;SDS011;12598;62.382;17.344;2022-12-10T03:34:23;1.45;;;1.27;;
13477;SDS011;12598;62.382;17.344;2022-12-10T03:35:25;1.65;;;1.33;;
13477;SDS011;12598;62.382;17.344;2022-12-10T03:36:27;1.85;;;1.42;;
13477;SDS011;12598;62.382;17.344;2022-12-10T03:37:31;1.40;;;1.30;;
13477;SDS011;12598;62.382;17.344;2022-12-10T03:38:34;1.90;;;1.60;;
13477;SDS011;12598;62.382;17.344;2022-12-10T03:39:37;2.78;;;1.50;;
13477;SDS011;12598;62.382;17.344;2022-12-10T03:40:40;1.40;;;1.30;;
13477;SDS011;12598;62.382;17.344;2022-12-10T03:41:42;1.40;;;1.30;;
13477;SDS011;12598;62.382;17.344;2022-12-10T03:42:44;1.70;;;1.40;;
13477;SDS011;12598;62.382;17.344;2022-12-10T03:43:52;1.70;;;1.40;;
13477;SDS011;12598;62.382;17.344;2022-12-10T03:44:56;1.50;;;1.40;;
13477;SDS011;12598;62.382;17.344;2022-12-10T03:45:58;1.75;;;1.42;;
13477;SDS011;12598;62.382;17.344;2022-12-10T03:47:00;1.50;;;1.40;;
13477;SDS011;12598;62.382;17.344;2022-12-10T03:48:03;1.60;;;1.50;;
13477;SDS011;12598;62.382;17.344;2022-12-10T03:49:06;1.50;;;1.40;;
13477;SDS011;12598;62.382;17.344;2022-12-10T03:50:08;2.58;;;1.65;;
13477;SDS011;12598;62.382;17.344;2022-12-10T03:51:11;1.33;;;1.23;;
13477;SDS011;12598;62.382;17.344;2022-12-10T03:52:13;1.35;;;1.23;;
13477;SDS011;12598;62.382;17.344;2022-12-10T03:53:15;1.15;;;1.05;;
13477;SDS011;12598;62.382;17.344;2022-12-10T03:54:17;1.48;;;1.10;;
13477;SDS011;12598;62.382;17.344;2022-12-10T03:55:19;1.67;;;1.45;;
13477;SDS011;12598;62.382;17.344;2022-12-10T03:56:20;1.77;;;1.33;;
13477;SDS011;12598;62.382;17.344;2022-12-10T03:57:23;1.10;;;1.00;;
13477;SDS011;12598;62.382;17.344;2022-12-10T03:58:25;1.83;;;1.27;;
13477;SDS011;12598;62.382;17.344;2022-12-10T03:59:27;2.17;;;1.52;;
13477;SDS011;12598;62.382;17.344;2022-12-10T04:00:31;1.30;;;1.20;;
13477;SDS011;12598;62.382;17.344;2022-12-10T04:01:33;2.47;;;1.23;;
13477;SDS011;12598;62.382;17.344;2022-12-10T04:02:35;1.13;;;1.00;;
13477;SDS011;12598;62.382;17.344;2022-12-10T04:03:38;1.45;;;1.35;;
13477;SDS011;12598;62.382;17.344;2022-12-10T04:04:41;1.50;;;1.02;;
13477;SDS011;12598;62.382;17.344;2022-12-10T04:05:43;1.48;;;0.98;;
13477;SDS011;12598;62.382;17.344;2022-12-10T04:06:45;1.20;;;1.10;;
13477;SDS011;12598;62.382;17.344;2022-12-10T04:07:47;0.90;;;0.90;;
13477;SDS011;12598;62.382;17.344;2022-12-10T04:08:49;1.38;;;1.13;;
13477;SDS011;12598;62.382;17.344;2022-12-10T04:09:59;1.80;;;1.30;;
13477;SDS011;12598;62.382;17.344;2022-12-10T04:11:04;1.50;;;1.35;;
13477;SDS011;12598;62.382;17.344;2022-12-10T04:12:08;1.20;;;1.10;;
13477;SDS011;12598;62.382;17.344;2022-12-10T04:13:10;1.23;;;1.02;;
13477;SDS011;12598;62.382;17.344;2022-12-10T04:14:31;1.23;;;1.13;;
13477;SDS011;12598;62.382;17.344;2022-12-10T04:15:52;0.98;;;0.88;;
13477;SDS011;12598;62.382;17.344;2022-12-10T04:17:12;1.48;;;1.30;;
13477;SDS011;12598;62.382;17.344;2022-12-10T04:18:14;1.30;;;1.20;;
13477;SDS011;12598;62.382;17.344;2022-12-10T04:19:16;1.15;;;0.88;;
13477;SDS011;12598;62.382;17.344;2022-12-10T04:20:19;1.80;;;1.40;;
13477;SDS011;12598;62.382;17.344;2022-12-10T04:21:40;0.95;;;0.88;;
13477;SDS011;12598;62.382;17.344;2022-12-10T04:23:01;1.20;;;1.10;;
13477;SDS011;12598;62.382;17.344;2022-12-10T04:24:23;1.42;;;0.98;;
13477;SDS011;12598;62.382;17.344;2022-12-10T04:25:45;1.30;;;1.20;;
13477;SDS011;12598;62.382;17.344;2022-12-10T04:27:10;1.35;;;1.00;;
13477;SDS011;12598;62.382;17.344;2022-12-10T04:28:32;1.17;;;1.08;;
13477;SDS011;12598;62.382;17.344;2022-12-10T04:29:34;1.30;;;1.20;;
13477;SDS011;12598;62.382;17.344;2022-12-10T04:30:36;1.17;;;1.08;;
13477;SDS011;12598;62.382;17.344;2022-12-10T04:31:38;1.33;;;1.20;;
13477;SDS011;12598;62.382;17.344;2022-12-10T04:32:40;1.20;;;1.10;;
13477;SDS011;12598;62.382;17.344;2022-12-10T04:33:42;2.65;;;1.30;;
13477;SDS011;12598;62.382;17.344;2022-12-10T04:34:43;1.17;;;1.08;;
13477;SDS011;12598;62.382;17.344;2022-12-10T04:35:45;1.30;;;1.20;;
13477;SDS011;12598;62.382;17.344;2022-12-10T04:36:47;1.20;;;1.10;;
13477;SDS011;12598;62.382;17.344;2022-12-10T04:37:49;1.30;;;1.20;;
13477;SDS011;12598;62.382;17.344;2022-12-10T04:38:51;1.35;;;1.10;;
13477;SDS011;12598;62.382;17.344;2022-12-10T04:39:53;1.65;;;1.20;;
13477;SDS011;12598;62.382;17.344;2022-12-10T04:40:55;1.45;;;1.35;;
13477;SDS011;12598;62.382;17.344;2022-12-10T04:41:57;1.50;;;1.40;;
13477;SDS011;12598;62.382;17.344;2022-12-10T04:43:00;1.20;;;1.10;;
13477;SDS011;12598;62.382;17.344;2022-12-10T04:44:02;1.20;;;1.10;;
13477;SDS011;12598;62.382;17.344;2022-12-10T04:45:04;1.17;;;1.08;;
13477;SDS011;12598;62.382;17.344;2022-12-10T04:46:06;1.60;;;1.40;;
13477;SDS011;12598;62.382;17.344;2022-12-10T04:47:08;1.25;;;1.02;;
13477;SDS011;12598;62.382;17.344;2022-12-10T04:48:11;1.33;;;1.23;;
13477;SDS011;12598;62.382;17.344;2022-12-10T04:49:13;1.40;;;1.23;;
13477;SDS011;12598;62.382;17.344;2022-12-10T04:50:15;1.63;;;1.38;;
13477;SDS011;12598;62.382;17.344;2022-12-10T04:51:17;1.25;;;1.15;;
13477;SDS011;12598;62.382;17.344;2022-12-10T04:52:19;1.58;;;1.40;;
13477;SDS011;12598;62.382;17.344;2022-12-10T04:53:21;1.77;;;1.30;;
13477;SDS011;12598;62.382;17.344;2022-12-10T04:54:24;2.08;;;1.50;;
13477;SDS011;12598;62.382;17.344;2022-12-10T04:55:27;1.40;;;1.30;;
13477;SDS011;12598;62.382;17.344;2022-12-10T04:56:29;1.67;;;1.40;;
13477;SDS011;12598;62.382;17.344;2022-12-10T04:57:31;1.63;;;1.40;;
13477;SDS011;12598;62.382;17.344;2022-12-10T04:58:33;1.65;;;1.55;;
13477;SDS011;12598;62.382;17.344;2022-12-10T04:59:35;1.52;;;1.23;;
13477;SDS011;12598;62.382;17.344;2022-12-10T05:00:37;1.60;;;1.38;;
13477;SDS011;12598;62.382;17.344;2022-12-10T05:01:39;1.60;;;1.50;;
13477;SDS011;12598;62.382;17.344;2022-12-10T05:02:41;1.60;;;1.50;;
13477;SDS011;12598;62.382;17.344;2022-12-10T05:03:43;1.67;;;1.38;;
13477;SDS011;12598;62.382;17.344;2022-12-10T05:04:45;1.83;;;1.40;;
13477;SDS011;12598;62.382;17.344;2022-12-10T05:05:50;1.60;;;1.50;;
13477;SDS011;12598;62.382;17.344;2022-12-10T05:06:52;1.67;;;1.40;;
13477;SDS011;12598;62.382;17.344;2022-12-10T05:07:53;1.70;;;1.52;;
13477;SDS011;12598;62.382;17.344;2022-12-10T05:08:55;1.38;;;1.27;;
13477;SDS011;12598;62.382;17.344;2022-12-10T05:09:58;1.92;;;1.73;;
13477;SDS011;12598;62.382;17.344;2022-12-10T05:11:07;1.75;;;1.55;;
13477;SDS011;12598;62.382;17.344;2022-12-10T05:12:11;1.80;;;1.55;;
13477;SDS011;12598;62.382;17.344;2022-12-10T05:13:13;1.75;;;1.30;;
13477;SDS011;12598;62.382;17.344;2022-12-10T05:14:15;2.92;;;1.50;;
13477;SDS011;12598;62.382;17.344;2022-12-10T05:15:17;1.40;;;1.30;;
13477;SDS011;12598;62.382;17.344;2022-12-10T05:16:19;1.90;;;1.65;;
13477;SDS011;12598;62.382;17.344;2022-12-10T05:17:22;1.70;;;1.40;;
13477;SDS011;12598;62.382;17.344;2022-12-10T05:18:24;2.08;;;1.60;;
13477;SDS011;12598;62.382;17.344;2022-12-10T05:19:26;1.50;;;1.40;;
13477;SDS011;12598;62.382;17.344;2022-12-10T05:20:27;2.03;;;1.70;;
13477;SDS011;12598;62.382;17.344;2022-12-10T05:21:29;2.17;;;1.58;;
13477;SDS011;12598;62.382;17.344;2022-12-10T05:22:50;1.77;;;1.40;;
13477;SDS011;12598;62.382;17.344;2022-12-10T05:24:11;1.60;;;1.50;;
13477;SDS011;12598;62.382;17.344;2022-12-10T05:25:14;1.42;;;1.10;;
13477;SDS011;12598;62.382;17.344;2022-12-10T05:26:20;2.60;;;1.70;;
13477;SDS011;12598;62.382;17.344;2022-12-10T05:27:24;1.38;;;1.27;;
13477;SDS011;12598;62.382;17.344;2022-12-10T05:28:26;1.55;;;1.45;;
13477;SDS011;12598;62.382;17.344;2022-12-10T05:29:29;1.90;;;1.48;;
13477;SDS011;12598;62.382;17.344;2022-12-10T05:30:31;1.58;;;1.48;;
13477;SDS011;12598;62.382;17.344;2022-12-10T05:31:36;1.77;;;1.67;;
13477;SDS011;12598;62.382;17.344;2022-12-10T05:32:38;1.48;;;1.38;;
13477;SDS011;12598;62.382;17.344;2022-12-10T05:33:40;1.70;;;1.50;;
13477;SDS011;12598;62.382;17.344;2022-12-10T05:34:42;1.98;;;1.40;;
13477;SDS011;12598;62.382;17.344;2022-12-10T05:35:44;2.25;;;1.58;;
13477;SDS011;12598;62.382;17.344;2022-12-10T05:36:56;1.65;;;1.52;;
13477;SDS011;12598;62.382;17.344;2022-12-10T05:37:58;2.45;;;1.42;;
13477;SDS011;12598;62.382;17.344;2022-12-10T05:38:59;1.55;;;1.42;;
13477;SDS011;12598;62.382;17.344;2022-12-10T05:40:01;1.55;;;1.20;;
13477;SDS011;12598;62.382;17.344;2022-12-10T05:41:05;1.63;;;1.45;;
13477;SDS011;12598;62.382;17.344;2022-12-10T05:42:09;1.42;;;1.30;;
13477;SDS011;12598;62.382;17.344;2022-12-10T05:43:10;1.52;;;1.40;;
13477;SDS011;12598;62.382;17.344;2022-12-10T05:44:12;2.30;;;1.50;;
13477;SDS011;12598;62.382;17.344;2022-12-10T05:45:14;1.33;;;1.23;;
13477;SDS011;12598;62.382;17.344;2022-12-10T05:46:17;1.88;;;1.55;;
13477;SDS011;12598;62.382;17.344;2022-12-10T05:47:21;1.55;;;1.30;;
13477;SDS011;12598;62.382;17.344;2022-12-10T05:48:23;1.75;;;1.50;;
13477;SDS011;12598;62.382;17.344;2022-12-10T05:49:25;1.75;;;1.38;;
13477;SDS011;12598;62.382;17.344;2022-12-10T05:50:27;2.28;;;1.50;;
13477;SDS011;12598;62.382;17.344;2022-12-10T05:51:30;1.42;;;1.20;;
13477;SDS011;12598;62.382;17.344;2022-12-10T05:52:33;1.50;;;1.40;;
13477;SDS011;12598;62.382;17.344;2022-12-10T05:53:35;1.10;;;1.00;;
13477;SDS011;12598;62.382;17.344;2022-12-10T05:54:38;1.52;;;1.20;;
13477;SDS011;12598;62.382;17.344;2022-12-10T05:55:39;1.35;;;1.25;;
13477;SDS011;12598;62.382;17.344;2022-12-10T05:56:41;1.80;;;1.55;;
13477;SDS011;12598;62.382;17.344;2022-12-10T05:57:43;2.05;;;1.75;;
13477;SDS011;12598;62.382;17.344;2022-12-10T05:58:46;1.60;;;1.50;;
13477;SDS011;12598;62.382;17.344;2022-12-10T05:59:51;1.52;;;1.30;;
13477;SDS011;12598;62.382;17.344;2022-12-10T06:00:52;1.48;;;1.00;;
13477;SDS011;12598;62.382;17.344;2022-12-10T06:01:54;1.38;;;1.13;;
13477;SDS011;12598;62.382;17.344;2022-12-10T06:02:56;1.58;;;1.45;;
13477;SDS011;12598;62.382;17.344;2022-12-10T06:03:59;1.40;;;1.25;;
13477;SDS011;12598;62.382;17.344;2022-12-10T06:05:04;1.30;;;1.20;;
13477;SDS011;12598;62.382;17.344;2022-12-10T06:06:06;1.60;;;1.50;;
13477;SDS011;12598;62.382;17.344;2022-12-10T06:07:08;2.08;;;1.33;;
13477;SDS011;12598;62.382;17.344;2022-12-10T06:08:11;1.95;;;1.40;;
13477;SDS011;12598;62.382;17.344;2022-12-10T06:09:13;1.60;;;1.50;;
13477;SDS011;12598;62.382;17.344;2022-12-10T06:10:15;2.03;;;1.83;;
13477;SDS011;12598;62.382;17.344;2022-12-10T06:11:17;1.85;;;1.35;;
13477;SDS011;12598;62.382;17.344;2022-12-10T06:12:19;1.92;;;1.40;;
13477;SDS011;12598;62.382;17.344;2022-12-10T06:13:21;1.85;;;1.30;;
13477;SDS011;12598;62.382;17.344;2022-12-10T06:14:23;1.58;;;1.48;;
13477;SDS011;12598;62.382;17.344;2022-12-10T06:15:25;1.90;;;1.50;;
13477;SDS011;12598;62.382;17.344;2022-12-10T06:16:27;1.65;;;1.20;;
13477;SDS011;12598;62.382;17.344;2022-12-10T06:17:29;1.98;;;1.50;;
13477;SDS011;12598;62.382;17.344;2022-12-10T06:18:31;2.00;;;1.52;;
13477;SDS011;12598;62.382;17.344;2022-12-10T06:19:33;2.53;;;1.25;;
13477;SDS011;12598;62.382;17.344;2022-12-10T06:20:37;1.45;;;1.27;;
13477;SDS011;12598;62.382;17.344;2022-12-10T06:21:46;1.23;;;1.05;;
13477;SDS011;12598;62.382;17.344;2022-12-10T06:22:48;2.00;;;1.35;;
13477;SDS011;12598;62.382;17.344;2022-12-10T06:23:50;2.00;;;1.27;;
13477;SDS011;12598;62.382;17.344;2022-12-10T06:24:52;1.30;;;1.20;;
13477;SDS011;12598;62.382;17.344;2022-12-10T06:25:54;1.63;;;1.45;;
13477;SDS011;12598;62.382;17.344;2022-12-10T06:26:56;1.50;;;1.30;;
13477;SDS011;12598;62.382;17.344;2022-12-10T06:27:59;1.70;;;1.23;;
13477;SDS011;12598;62.382;17.344;2022-12-10T06:29:00;1.52;;;1.23;;
13477;SDS011;12598;62.382;17.344;2022-12-10T06:30:02;1.73;;;1.20;;
13477;SDS011;12598;62.382;17.344;2022-12-10T06:31:05;2.00;;;1.50;;
13477;SDS011;12598;62.382;17.344;2022-12-10T06:32:07;1.85;;;1.33;;
13477;SDS011;12598;62.382;17.344;2022-12-10T06:33:09;1.88;;;1.70;;
13477;SDS011;12598;62.382;17.344;2022-12-10T06:34:11;1.83;;;1.40;;
13477;SDS011;12598;62.382;17.344;2022-12-10T06:35:13;2.08;;;1.52;;
13477;SDS011;12598;62.382;17.344;2022-12-10T06:36:15;1.50;;;1.40;;
13477;SDS011;12598;62.382;17.344;2022-12-10T06:37:18;1.63;;;1.45;;
13477;SDS011;12598;62.382;17.344;2022-12-10T06:38:20;2.63;;;1.50;;